Llucmajor, Spain

2:10 AM CET on February 10, 2016 (GMT +0100)
IMALLORC2 | | Change Station
CLOSE
Current Station
Personal Weather Station
Location: Bahia Azul, MALLORCA
Elevation: 466 ft
Nearby Weather Stations

Elev 466 ft 39.43 °N, 2.76 °E | Updated 1 minute ago

Partly Cloudy
Partly Cloudy
60.5 °F
Feels Like 60.5 °F
N
22.0
Wind Variable Wind from WNW

Today
High -- | Low -- °F
--% Chance of Precip.
Yesterday
High -- | Low -- °F
Precip. -- in
Pressure 29.86 in
Visibility 6.2 miles
Clouds Few 3400 ft
Dew Point 53.0 °F
Humidity 76%
Rainfall 0.00 in
Snow Depth Not available.
7:47 AM 6:19 PM
Waxing Crescent, 3% visible
METAR LEPA 100100Z 26024KT 9999 FEW034 18/10 Q1011 NOSIG
Pressure 29.86 in
Visibility 6.2 miles
Clouds Few 3400 ft
Dew Point 53.0 °F
Humidity 76%
Rainfall 0.00 in
Snow Depth Not available.
7:47 AM 6:19 PM
Waxing Crescent, 3% visible
METAR LEPA 100100Z 26024KT 9999 FEW034 18/10 Q1011 NOSIG

10-Day Weather Forecast

Almanac

Astronomy

Feb. 10, 2016 Rise Set
Actual Time
Civil Twilight
Nautical Twilight
Astronomical Twilight
Moon
Length of Visible Light
Length of Day
Tomorrow will be .
, % of the Moon is Illuminated

Today's Extremes

Country Highs Country Lows

Community

WunderPhotos

Upload Photos

1,891,752 photos uploaded!

WunderBlog® & News

Nearby

Air Quality

  Air Quality AQ Index Pollutant
Not available.

Snow Depth

Station Depth Elevation

Earthquake Activity

City Distance Mag. Time & Date
Minimum magnitude displayed is 2.5.

Coastal Water Temperatures

Place Temperature

Stations

Nearby Weather Stations

Station Location Temp. Windchill Dew Point Humidity Wind Precip. Elev Updated Type